sensor_id;sensor_type;location;lat;lon;timestamp;pressure;altitude;pressure_sealevel;temperature;humidity
12775;BME280;6451;42.630;23.382;2023-04-27T00:02:00;94044.34;;;12.27;57.56
12775;BME280;6451;42.630;23.382;2023-04-27T00:04:27;94033.16;;;12.32;57.15
12775;BME280;6451;42.630;23.382;2023-04-27T00:06:54;94059.66;;;12.35;57.31
12775;BME280;6451;42.630;23.382;2023-04-27T00:09:21;94030.31;;;12.24;57.63
12775;BME280;6451;42.630;23.382;2023-04-27T00:11:49;94064.78;;;12.17;57.89
12775;BME280;6451;42.630;23.382;2023-04-27T00:14:16;94050.81;;;12.41;56.87
12775;BME280;6451;42.630;23.382;2023-04-27T00:16:44;94015.41;;;11.73;57.46
12775;BME280;6451;42.630;23.382;2023-04-27T00:19:11;94014.88;;;12.06;57.11
12775;BME280;6451;42.630;23.382;2023-04-27T00:21:39;94062.25;;;12.28;57.28
12775;BME280;6451;42.630;23.382;2023-04-27T00:24:07;94041.63;;;12.04;57.21
12775;BME280;6451;42.630;23.382;2023-04-27T00:26:33;94012.41;;;11.78;57.21
12775;BME280;6451;42.630;23.382;2023-04-27T00:29:02;94054.88;;;11.82;57.65
12775;BME280;6451;42.630;23.382;2023-04-27T00:31:29;94074.97;;;12.20;57.46
12775;BME280;6451;42.630;23.382;2023-04-27T00:33:57;94054.94;;;12.09;57.27
12775;BME280;6451;42.630;23.382;2023-04-27T00:36:23;94064.25;;;12.31;56.67
12775;BME280;6451;42.630;23.382;2023-04-27T00:38:51;94033.97;;;12.09;56.70
12775;BME280;6451;42.630;23.382;2023-04-27T00:41:18;94067.13;;;12.18;56.97
12775;BME280;6451;42.630;23.382;2023-04-27T00:43:45;94066.00;;;11.77;57.45
12775;BME280;6451;42.630;23.382;2023-04-27T00:46:16;94072.56;;;11.95;57.19
12775;BME280;6451;42.630;23.382;2023-04-27T00:48:44;94078.75;;;11.73;57.16
12775;BME280;6451;42.630;23.382;2023-04-27T00:51:11;94083.31;;;11.69;57.45
12775;BME280;6451;42.630;23.382;2023-04-27T00:53:38;94062.22;;;11.62;57.42
12775;BME280;6451;42.630;23.382;2023-04-27T00:56:06;94068.59;;;11.51;57.82
12775;BME280;6451;42.630;23.382;2023-04-27T00:58:33;94077.59;;;11.74;57.76
12775;BME280;6451;42.630;23.382;2023-04-27T01:01:00;94036.41;;;11.33;57.79
12775;BME280;6451;42.630;23.382;2023-04-27T01:03:29;94074.22;;;11.42;57.91
12775;BME280;6451;42.630;23.382;2023-04-27T01:05:56;94091.13;;;11.51;57.82
12775;BME280;6451;42.630;23.382;2023-04-27T01:08:26;94090.28;;;11.66;57.79
12775;BME280;6451;42.630;23.382;2023-04-27T01:10:53;94095.19;;;11.80;57.23
12775;BME280;6451;42.630;23.382;2023-04-27T01:13:20;94085.19;;;11.46;58.17
12775;BME280;6451;42.630;23.382;2023-04-27T01:15:47;94081.59;;;11.41;57.84
12775;BME280;6451;42.630;23.382;2023-04-27T01:18:14;94082.53;;;11.68;57.48
12775;BME280;6451;42.630;23.382;2023-04-27T01:20:45;94072.03;;;11.28;57.90
12775;BME280;6451;42.630;23.382;2023-04-27T01:23:14;94094.56;;;11.67;57.90
12775;BME280;6451;42.630;23.382;2023-04-27T01:25:41;94090.22;;;11.08;59.00
12775;BME280;6451;42.630;23.382;2023-04-27T01:28:08;94095.59;;;11.05;58.89
12775;BME280;6451;42.630;23.382;2023-04-27T01:30:35;94092.25;;;11.31;58.83
12775;BME280;6451;42.630;23.382;2023-04-27T01:33:02;94090.19;;;11.44;58.08
12775;BME280;6451;42.630;23.382;2023-04-27T01:35:29;94087.75;;;11.38;57.93
12775;BME280;6451;42.630;23.382;2023-04-27T01:37:56;94094.56;;;11.29;58.42
12775;BME280;6451;42.630;23.382;2023-04-27T01:40:24;94094.31;;;11.18;57.94
12775;BME280;6451;42.630;23.382;2023-04-27T01:42:51;94103.34;;;11.41;57.75
12775;BME280;6451;42.630;23.382;2023-04-27T01:45:18;94093.75;;;11.48;57.36
12775;BME280;6451;42.630;23.382;2023-04-27T01:47:45;94103.81;;;11.08;57.75
12775;BME280;6451;42.630;23.382;2023-04-27T01:50:12;94055.59;;;10.67;58.19
12775;BME280;6451;42.630;23.382;2023-04-27T01:52:40;94061.03;;;10.86;57.59
12775;BME280;6451;42.630;23.382;2023-04-27T01:55:07;94103.59;;;11.17;58.06
12775;BME280;6451;42.630;23.382;2023-04-27T01:57:37;94104.22;;;11.10;57.72
12775;BME280;6451;42.630;23.382;2023-04-27T02:00:05;94082.19;;;10.96;57.77
12775;BME280;6451;42.630;23.382;2023-04-27T02:02:35;94080.00;;;11.02;57.96
12775;BME280;6451;42.630;23.382;2023-04-27T02:05:02;94043.00;;;10.58;58.10
12775;BME280;6451;42.630;23.382;2023-04-27T02:07:29;94113.50;;;10.90;58.35
12775;BME280;6451;42.630;23.382;2023-04-27T02:09:56;94039.47;;;10.58;57.67
12775;BME280;6451;42.630;23.382;2023-04-27T02:12:26;94059.72;;;10.80;57.45
12775;BME280;6451;42.630;23.382;2023-04-27T02:14:54;94109.44;;;11.35;57.17
12775;BME280;6451;42.630;23.382;2023-04-27T02:17:21;94096.53;;;11.12;57.28
12775;BME280;6451;42.630;23.382;2023-04-27T02:19:50;94115.44;;;11.09;57.32
12775;BME280;6451;42.630;23.382;2023-04-27T02:22:20;94099.63;;;10.95;57.33
12775;BME280;6451;42.630;23.382;2023-04-27T02:24:48;94107.03;;;11.14;56.86
12775;BME280;6451;42.630;23.382;2023-04-27T02:27:15;94049.78;;;10.68;57.34
12775;BME280;6451;42.630;23.382;2023-04-27T02:29:42;94116.44;;;11.01;57.62
12775;BME280;6451;42.630;23.382;2023-04-27T02:32:10;94101.31;;;11.19;57.08
12775;BME280;6451;42.630;23.382;2023-04-27T02:34:38;94076.75;;;10.96;56.54
12775;BME280;6451;42.630;23.382;2023-04-27T02:37:05;94039.63;;;10.65;56.94
12775;BME280;6451;42.630;23.382;2023-04-27T02:39:32;94079.97;;;10.82;57.49
12775;BME280;6451;42.630;23.382;2023-04-27T02:41:59;94097.69;;;11.31;56.67
12775;BME280;6451;42.630;23.382;2023-04-27T02:44:28;94112.72;;;10.90;57.21
12775;BME280;6451;42.630;23.382;2023-04-27T02:46:55;94115.19;;;11.14;56.54
12775;BME280;6451;42.630;23.382;2023-04-27T02:49:23;94102.97;;;11.04;56.72
12775;BME280;6451;42.630;23.382;2023-04-27T02:51:50;94075.53;;;10.74;57.00
12775;BME280;6451;42.630;23.382;2023-04-27T02:54:16;94105.31;;;11.25;56.24
12775;BME280;6451;42.630;23.382;2023-04-27T02:56:44;94110.69;;;10.86;57.09
12775;BME280;6451;42.630;23.382;2023-04-27T02:59:11;94114.06;;;10.99;57.06
12775;BME280;6451;42.630;23.382;2023-04-27T03:01:38;94118.63;;;10.95;57.04
12775;BME280;6451;42.630;23.382;2023-04-27T03:04:05;94109.53;;;10.88;56.88
12775;BME280;6451;42.630;23.382;2023-04-27T03:06:33;94113.00;;;11.04;56.46
12775;BME280;6451;42.630;23.382;2023-04-27T03:09:00;94127.34;;;10.69;56.74
12775;BME280;6451;42.630;23.382;2023-04-27T03:11:28;94126.22;;;10.54;57.08
12775;BME280;6451;42.630;23.382;2023-04-27T03:13:57;94124.16;;;10.99;56.57
12775;BME280;6451;42.630;23.382;2023-04-27T03:16:24;94129.13;;;11.12;56.41
12775;BME280;6451;42.630;23.382;2023-04-27T03:18:51;94120.16;;;10.77;55.84
12775;BME280;6451;42.630;23.382;2023-04-27T03:21:19;94067.94;;;10.33;56.61
12775;BME280;6451;42.630;23.382;2023-04-27T03:23:47;94127.63;;;10.48;56.66
12775;BME280;6451;42.630;23.382;2023-04-27T03:26:15;94130.78;;;10.66;56.74
12775;BME280;6451;42.630;23.382;2023-04-27T03:28:42;94149.00;;;11.01;56.12
12775;BME280;6451;42.630;23.382;2023-04-27T03:31:11;94130.22;;;10.76;56.37
12775;BME280;6451;42.630;23.382;2023-04-27T03:33:40;94138.22;;;10.53;57.05
12775;BME280;6451;42.630;23.382;2023-04-27T03:36:07;94135.91;;;10.71;56.25
12775;BME280;6451;42.630;23.382;2023-04-27T03:38:35;94125.22;;;10.78;56.14
12775;BME280;6451;42.630;23.382;2023-04-27T03:41:04;94147.22;;;10.57;56.55
12775;BME280;6451;42.630;23.382;2023-04-27T03:43:32;94152.38;;;10.63;56.19
12775;BME280;6451;42.630;23.382;2023-04-27T03:46:01;94150.72;;;10.90;56.00
12775;BME280;6451;42.630;23.382;2023-04-27T03:48:28;94154.34;;;11.13;55.98
12775;BME280;6451;42.630;23.382;2023-04-27T03:50:56;94145.44;;;10.65;56.34
12775;BME280;6451;42.630;23.382;2023-04-27T03:53:23;94163.41;;;10.70;55.96
12775;BME280;6451;42.630;23.382;2023-04-27T03:55:50;94164.56;;;10.53;56.57
12775;BME280;6451;42.630;23.382;2023-04-27T03:58:19;94159.28;;;10.92;56.25
12775;BME280;6451;42.630;23.382;2023-04-27T04:00:46;94159.72;;;10.62;56.25
12775;BME280;6451;42.630;23.382;2023-04-27T04:03:13;94179.69;;;10.38;56.80
12775;BME280;6451;42.630;23.382;2023-04-27T04:05:40;94098.50;;;10.29;55.54
12775;BME280;6451;42.630;23.382;2023-04-27T04:08:07;94150.59;;;10.86;55.33
12775;BME280;6451;42.630;23.382;2023-04-27T04:10:34;94155.78;;;10.75;55.70
12775;BME280;6451;42.630;23.382;2023-04-27T04:13:01;94181.50;;;10.66;55.04
12775;BME280;6451;42.630;23.382;2023-04-27T04:15:30;94185.00;;;11.13;54.71
12775;BME280;6451;42.630;23.382;2023-04-27T04:17:58;94158.84;;;10.58;55.35
12775;BME280;6451;42.630;23.382;2023-04-27T04:20:25;94195.63;;;10.71;55.11
12775;BME280;6451;42.630;23.382;2023-04-27T04:22:52;94204.50;;;11.35;54.60
12775;BME280;6451;42.630;23.382;2023-04-27T04:25:19;94140.00;;;10.81;54.08
12775;BME280;6451;42.630;23.382;2023-04-27T04:27:47;94197.28;;;11.07;54.03
12775;BME280;6451;42.630;23.382;2023-04-27T04:30:15;94199.66;;;10.93;54.37
12775;BME280;6451;42.630;23.382;2023-04-27T04:32:44;94209.13;;;11.34;54.00
12775;BME280;6451;42.630;23.382;2023-04-27T04:35:11;94212.16;;;11.13;54.14
12775;BME280;6451;42.630;23.382;2023-04-27T04:37:39;94213.38;;;11.00;53.88
12775;BME280;6451;42.630;23.382;2023-04-27T04:40:08;94210.28;;;11.18;53.91
12775;BME280;6451;42.630;23.382;2023-04-27T04:42:36;94214.16;;;11.01;53.88
12775;BME280;6451;42.630;23.382;2023-04-27T04:45:05;94194.19;;;11.09;53.83
12775;BME280;6451;42.630;23.382;2023-04-27T04:47:32;94215.91;;;11.25;53.55
12775;BME280;6451;42.630;23.382;2023-04-27T04:50:01;94172.91;;;10.95;53.80
12775;BME280;6451;42.630;23.382;2023-04-27T04:52:28;94235.63;;;11.22;53.51
12775;BME280;6451;42.630;23.382;2023-04-27T04:54:55;94205.31;;;10.88;54.03
12775;BME280;6451;42.630;23.382;2023-04-27T04:57:22;94203.69;;;10.68;53.77
12775;BME280;6451;42.630;23.382;2023-04-27T04:59:49;94246.75;;;11.01;53.81
12775;BME280;6451;42.630;23.382;2023-04-27T05:02:16;94239.41;;;11.01;53.88
12775;BME280;6451;42.630;23.382;2023-04-27T05:04:45;94240.53;;;11.16;53.44
12775;BME280;6451;42.630;23.382;2023-04-27T05:07:14;94234.22;;;11.63;53.13
12775;BME280;6451;42.630;23.382;2023-04-27T05:09:41;94207.78;;;11.09;53.23
12775;BME280;6451;42.630;23.382;2023-04-27T05:12:08;94219.19;;;11.34;53.15
12775;BME280;6451;42.630;23.382;2023-04-27T05:14:35;94248.38;;;11.88;52.44
12775;BME280;6451;42.630;23.382;2023-04-27T05:17:02;94250.84;;;12.12;51.87
12775;BME280;6451;42.630;23.382;2023-04-27T05:19:30;94191.34;;;11.37;52.23
12775;BME280;6451;42.630;23.382;2023-04-27T05:21:57;94222.13;;;11.60;52.37
12775;BME280;6451;42.630;23.382;2023-04-27T05:24:25;94249.97;;;12.28;51.95
12775;BME280;6451;42.630;23.382;2023-04-27T05:26:52;94219.91;;;11.82;51.68
12775;BME280;6451;42.630;23.382;2023-04-27T05:29:19;94250.50;;;12.56;51.48
12775;BME280;6451;42.630;23.382;2023-04-27T05:31:46;94238.16;;;11.81;52.36
12775;BME280;6451;42.630;23.382;2023-04-27T05:34:13;94185.97;;;11.40;51.63
12775;BME280;6451;42.630;23.382;2023-04-27T05:36:41;94193.63;;;11.35;52.10
12775;BME280;6451;42.630;23.382;2023-04-27T05:39:10;94246.59;;;11.60;52.42
12775;BME280;6451;42.630;23.382;2023-04-27T05:41:38;94251.72;;;11.30;52.40
12775;BME280;6451;42.630;23.382;2023-04-27T05:44:05;94260.13;;;11.41;52.54
12775;BME280;6451;42.630;23.382;2023-04-27T05:46:32;94281.19;;;11.28;53.00
12775;BME280;6451;42.630;23.382;2023-04-27T05:49:01;94242.63;;;11.23;53.25
12775;BME280;6451;42.630;23.382;2023-04-27T05:51:28;94249.41;;;11.48;53.40
12775;BME280;6451;42.630;23.382;2023-04-27T05:53:54;94268.97;;;11.38;52.84
12775;BME280;6451;42.630;23.382;2023-04-27T05:56:22;94198.66;;;11.01;53.18
12775;BME280;6451;42.630;23.382;2023-04-27T05:58:50;94263.34;;;11.98;52.53
12775;BME280;6451;42.630;23.382;2023-04-27T06:01:17;94263.59;;;11.73;52.91
12775;BME280;6451;42.630;23.382;2023-04-27T06:03:44;94255.59;;;11.80;52.95
12775;BME280;6451;42.630;23.382;2023-04-27T06:06:11;94258.47;;;11.72;52.76
12775;BME280;6451;42.630;23.382;2023-04-27T06:08:38;94261.06;;;12.00;52.69
12775;BME280;6451;42.630;23.382;2023-04-27T06:11:05;94278.44;;;11.95;52.61
12775;BME280;6451;42.630;23.382;2023-04-27T06:13:32;94247.66;;;11.91;52.57
12775;BME280;6451;42.630;23.382;2023-04-27T06:16:01;94265.78;;;12.22;52.62
12775;BME280;6451;42.630;23.382;2023-04-27T06:18:30;94242.00;;;11.29;52.98
12775;BME280;6451;42.630;23.382;2023-04-27T06:20:58;94263.06;;;11.67;53.37
12775;BME280;6451;42.630;23.382;2023-04-27T06:23:29;94258.84;;;11.70;53.58
12775;BME280;6451;42.630;23.382;2023-04-27T06:25:56;94267.75;;;11.86;53.30
12775;BME280;6451;42.630;23.382;2023-04-27T06:28:24;94262.63;;;12.01;52.91
12775;BME280;6451;42.630;23.382;2023-04-27T06:30:52;94285.16;;;11.82;52.97
12775;BME280;6451;42.630;23.382;2023-04-27T06:33:20;94254.19;;;12.06;53.32
12775;BME280;6451;42.630;23.382;2023-04-27T06:35:47;94259.41;;;11.60;53.95
12775;BME280;6451;42.630;23.382;2023-04-27T06:38:15;94258.41;;;11.84;53.43
12775;BME280;6451;42.630;23.382;2023-04-27T06:40:42;94258.84;;;12.24;53.34
12775;BME280;6451;42.630;23.382;2023-04-27T06:43:09;94258.88;;;12.67;51.80
12775;BME280;6451;42.630;23.382;2023-04-27T06:45:36;94254.72;;;12.73;51.75
12775;BME280;6451;42.630;23.382;2023-04-27T06:48:03;94258.00;;;13.05;51.49
12775;BME280;6451;42.630;23.382;2023-04-27T06:50:32;94256.66;;;12.95;50.76
12775;BME280;6451;42.630;23.382;2023-04-27T06:52:58;94257.22;;;13.04;51.01
12775;BME280;6451;42.630;23.382;2023-04-27T06:55:25;94267.88;;;13.13;51.05
12775;BME280;6451;42.630;23.382;2023-04-27T06:57:52;94267.00;;;13.09;50.73
12775;BME280;6451;42.630;23.382;2023-04-27T07:00:20;94270.06;;;12.62;51.07
12775;BME280;6451;42.630;23.382;2023-04-27T07:02:47;94263.50;;;12.86;51.55
12775;BME280;6451;42.630;23.382;2023-04-27T07:05:14;94264.25;;;13.05;51.29
12775;BME280;6451;42.630;23.382;2023-04-27T07:07:42;94252.44;;;13.21;50.53
12775;BME280;6451;42.630;23.382;2023-04-27T07:10:09;94256.97;;;13.62;49.90
12775;BME280;6451;42.630;23.382;2023-04-27T07:12:36;94254.72;;;13.42;49.81
12775;BME280;6451;42.630;23.382;2023-04-27T07:15:04;94263.50;;;13.81;49.66
12775;BME280;6451;42.630;23.382;2023-04-27T07:17:32;94194.59;;;13.31;49.84
12775;BME280;6451;42.630;23.382;2023-04-27T07:20:00;94238.09;;;13.77;49.22
12775;BME280;6451;42.630;23.382;2023-04-27T07:22:28;94248.88;;;13.66;49.82
12775;BME280;6451;42.630;23.382;2023-04-27T07:24:56;94245.78;;;14.28;49.28
12775;BME280;6451;42.630;23.382;2023-04-27T07:27:23;94259.75;;;14.23;48.54
12775;BME280;6451;42.630;23.382;2023-04-27T07:29:50;94250.78;;;14.52;47.89
12775;BME280;6451;42.630;23.382;2023-04-27T07:32:17;94265.13;;;14.15;48.39
12775;BME280;6451;42.630;23.382;2023-04-27T07:34:44;94245.91;;;14.08;48.44
12775;BME280;6451;42.630;23.382;2023-04-27T07:37:13;94248.66;;;14.08;48.32
12775;BME280;6451;42.630;23.382;2023-04-27T07:39:40;94247.53;;;14.43;48.03
12775;BME280;6451;42.630;23.382;2023-04-27T07:42:08;94219.25;;;14.58;47.45
12775;BME280;6451;42.630;23.382;2023-04-27T07:44:36;94258.59;;;14.54;47.68
12775;BME280;6451;42.630;23.382;2023-04-27T07:47:03;94250.59;;;15.12;47.29
12775;BME280;6451;42.630;23.382;2023-04-27T07:49:30;94245.09;;;15.56;45.83
12775;BME280;6451;42.630;23.382;2023-04-27T07:51:57;94246.19;;;15.48;45.53
12775;BME280;6451;42.630;23.382;2023-04-27T07:54:24;94237.13;;;15.92;45.43
12775;BME280;6451;42.630;23.382;2023-04-27T07:56:52;94254.38;;;15.00;44.60
12775;BME280;6451;42.630;23.382;2023-04-27T07:59:23;94219.16;;;15.36;44.79
12775;BME280;6451;42.630;23.382;2023-04-27T08:01:50;94240.28;;;14.95;45.40
12775;BME280;6451;42.630;23.382;2023-04-27T08:04:17;94254.03;;;15.50;45.14
12775;BME280;6451;42.630;23.382;2023-04-27T08:06:44;94227.25;;;15.25;45.19
12775;BME280;6451;42.630;23.382;2023-04-27T08:09:11;94269.09;;;15.26;44.59
12775;BME280;6451;42.630;23.382;2023-04-27T08:11:40;94243.13;;;14.65;44.48
12775;BME280;6451;42.630;23.382;2023-04-27T08:14:07;94264.84;;;14.54;44.78
12775;BME280;6451;42.630;23.382;2023-04-27T08:16:39;94253.53;;;15.37;44.76
12775;BME280;6451;42.630;23.382;2023-04-27T08:19:06;94251.09;;;15.73;44.10
12775;BME280;6451;42.630;23.382;2023-04-27T08:21:34;94243.34;;;15.82;44.11
12775;BME280;6451;42.630;23.382;2023-04-27T08:24:01;94252.50;;;15.56;44.17
12775;BME280;6451;42.630;23.382;2023-04-27T08:26:28;94250.88;;;15.48;44.44
12775;BME280;6451;42.630;23.382;2023-04-27T08:28:55;94233.91;;;15.72;43.72
12775;BME280;6451;42.630;23.382;2023-04-27T08:31:22;94248.22;;;16.13;43.24
12775;BME280;6451;42.630;23.382;2023-04-27T08:33:51;94242.59;;;15.89;43.29
12775;BME280;6451;42.630;23.382;2023-04-27T08:36:20;94246.50;;;15.88;43.13
12775;BME280;6451;42.630;23.382;2023-04-27T08:38:48;94251.16;;;15.80;42.70
12775;BME280;6451;42.630;23.382;2023-04-27T08:41:19;94244.13;;;15.82;42.97
12775;BME280;6451;42.630;23.382;2023-04-27T08:43:47;94245.59;;;15.66;43.74
12775;BME280;6451;42.630;23.382;2023-04-27T08:46:17;94241.97;;;16.17;42.58
12775;BME280;6451;42.630;23.382;2023-04-27T08:48:45;94240.09;;;16.38;42.53
12775;BME280;6451;42.630;23.382;2023-04-27T08:51:14;94245.97;;;16.40;42.56
12775;BME280;6451;42.630;23.382;2023-04-27T08:53:47;94247.25;;;16.68;42.13
12775;BME280;6451;42.630;23.382;2023-04-27T08:56:14;94252.81;;;15.99;42.27
12775;BME280;6451;42.630;23.382;2023-04-27T08:58:41;94248.91;;;15.96;42.99
12775;BME280;6451;42.630;23.382;2023-04-27T09:01:08;94251.69;;;16.03;43.11
12775;BME280;6451;42.630;23.382;2023-04-27T09:03:37;94254.41;;;16.03;43.00
12775;BME280;6451;42.630;23.382;2023-04-27T09:06:04;94241.47;;;16.00;42.88
12775;BME280;6451;42.630;23.382;2023-04-27T09:08:43;94252.72;;;16.64;42.21
12775;BME280;6451;42.630;23.382;2023-04-27T09:11:10;94244.81;;;16.42;42.19
12775;BME280;6451;42.630;23.382;2023-04-27T09:13:39;94246.66;;;16.16;42.18
12775;BME280;6451;42.630;23.382;2023-04-27T09:16:06;94242.84;;;16.38;42.17
12775;BME280;6451;42.630;23.382;2023-04-27T09:18:35;94246.31;;;16.32;41.35
12775;BME280;6451;42.630;23.382;2023-04-27T09:21:03;94234.63;;;16.35;41.00
12775;BME280;6451;42.630;23.382;2023-04-27T09:23:32;94240.06;;;16.28;41.76
12775;BME280;6451;42.630;23.382;2023-04-27T09:26:02;94230.09;;;16.92;41.49
12775;BME280;6451;42.630;23.382;2023-04-27T09:28:30;94234.19;;;16.29;41.34
12775;BME280;6451;42.630;23.382;2023-04-27T09:30:59;94233.59;;;16.79;41.32
12775;BME280;6451;42.630;23.382;2023-04-27T09:33:28;94224.53;;;16.57;40.48
12775;BME280;6451;42.630;23.382;2023-04-27T09:35:56;94228.16;;;16.93;40.44
12775;BME280;6451;42.630;23.382;2023-04-27T09:38:25;94223.88;;;17.28;39.46
12775;BME280;6451;42.630;23.382;2023-04-27T09:40:53;94229.75;;;17.26;39.75
12775;BME280;6451;42.630;23.382;2023-04-27T09:43:24;94228.19;;;17.25;39.82
12775;BME280;6451;42.630;23.382;2023-04-27T09:45:53;94215.63;;;17.60;39.40
12775;BME280;6451;42.630;23.382;2023-04-27T09:48:21;94212.84;;;16.71;39.78
12775;BME280;6451;42.630;23.382;2023-04-27T09:50:49;94215.63;;;16.99;39.33
12775;BME280;6451;42.630;23.382;2023-04-27T09:53:18;94210.56;;;17.19;39.27
12775;BME280;6451;42.630;23.382;2023-04-27T09:55:48;94212.47;;;16.76;39.28
12775;BME280;6451;42.630;23.382;2023-04-27T10:01:29;94203.38;;;16.54;39.57
12775;BME280;6451;42.630;23.382;2023-04-27T10:04:11;94215.88;;;16.44;39.64
12775;BME280;6451;42.630;23.382;2023-04-27T10:06:52;94213.16;;;16.51;39.54
12775;BME280;6451;42.630;23.382;2023-04-27T10:09:23;94198.00;;;17.54;38.75
12775;BME280;6451;42.630;23.382;2023-04-27T10:11:53;94184.28;;;17.64;38.63
12775;BME280;6451;42.630;23.382;2023-04-27T10:14:21;94197.75;;;18.50;38.70
12775;BME280;6451;42.630;23.382;2023-04-27T10:16:51;94189.69;;;18.03;38.00
12775;BME280;6451;42.630;23.382;2023-04-27T10:19:20;94211.97;;;18.27;37.60
12775;BME280;6451;42.630;23.382;2023-04-27T10:21:52;94179.59;;;16.97;37.53
12775;BME280;6451;42.630;23.382;2023-04-27T10:24:30;94204.66;;;17.52;37.40
12775;BME280;6451;42.630;23.382;2023-04-27T10:27:00;94194.09;;;16.90;37.59
12775;BME280;6451;42.630;23.382;2023-04-27T10:29:34;94201.16;;;17.13;38.24
12775;BME280;6451;42.630;23.382;2023-04-27T10:32:07;94213.69;;;17.42;37.92
12775;BME280;6451;42.630;23.382;2023-04-27T10:34:35;94183.88;;;17.66;37.54
12775;BME280;6451;42.630;23.382;2023-04-27T10:37:07;94186.66;;;17.51;38.11
12775;BME280;6451;42.630;23.382;2023-04-27T10:39:35;94195.22;;;17.89;36.99
12775;BME280;6451;42.630;23.382;2023-04-27T10:42:04;94208.19;;;17.14;36.88
12775;BME280;6451;42.630;23.382;2023-04-27T10:44:32;94199.19;;;17.42;37.18
12775;BME280;6451;42.630;23.382;2023-04-27T10:47:00;94211.34;;;17.05;37.05
12775;BME280;6451;42.630;23.382;2023-04-27T10:49:29;94209.38;;;17.23;36.54
12775;BME280;6451;42.630;23.382;2023-04-27T10:51:57;94188.19;;;16.85;37.23
12775;BME280;6451;42.630;23.382;2023-04-27T10:54:26;94190.53;;;17.68;36.93
12775;BME280;6451;42.630;23.382;2023-04-27T10:57:01;94214.88;;;17.34;36.51
12775;BME280;6451;42.630;23.382;2023-04-27T10:59:28;94194.78;;;16.59;37.95
12775;BME280;6451;42.630;23.382;2023-04-27T11:01:55;94207.63;;;16.40;38.14
12775;BME280;6451;42.630;23.382;2023-04-27T11:04:22;94169.31;;;16.44;38.26
12775;BME280;6451;42.630;23.382;2023-04-27T11:06:50;94198.03;;;17.14;37.45
12775;BME280;6451;42.630;23.382;2023-04-27T11:09:24;94216.69;;;16.59;37.46
12775;BME280;6451;42.630;23.382;2023-04-27T11:11:52;94192.84;;;16.66;37.21
12775;BME280;6451;42.630;23.382;2023-04-27T11:14:19;94200.75;;;17.46;36.73
12775;BME280;6451;42.630;23.382;2023-04-27T11:16:46;94181.91;;;17.77;35.68
12775;BME280;6451;42.630;23.382;2023-04-27T11:19:15;94194.47;;;17.46;35.89
12775;BME280;6451;42.630;23.382;2023-04-27T11:21:43;94185.88;;;17.72;35.95
12775;BME280;6451;42.630;23.382;2023-04-27T11:24:11;94199.94;;;17.82;35.79
12775;BME280;6451;42.630;23.382;2023-04-27T11:26:38;94205.81;;;17.62;35.10
12775;BME280;6451;42.630;23.382;2023-04-27T11:29:06;94190.56;;;17.22;35.43
12775;BME280;6451;42.630;23.382;2023-04-27T11:31:39;94191.75;;;17.17;36.01
12775;BME280;6451;42.630;23.382;2023-04-27T11:34:08;94194.50;;;17.10;36.40
12775;BME280;6451;42.630;23.382;2023-04-27T11:36:35;94201.53;;;17.29;36.20
12775;BME280;6451;42.630;23.382;2023-04-27T11:39:02;94181.19;;;17.27;36.09
12775;BME280;6451;42.630;23.382;2023-04-27T11:41:35;94207.84;;;17.33;36.10
12775;BME280;6451;42.630;23.382;2023-04-27T11:44:06;94195.25;;;17.68;36.50
12775;BME280;6451;42.630;23.382;2023-04-27T11:46:34;94197.63;;;17.37;36.26
12775;BME280;6451;42.630;23.382;2023-04-27T11:49:03;94211.72;;;17.39;36.34
12775;BME280;6451;42.630;23.382;2023-04-27T11:51:32;94211.72;;;17.54;36.35
12775;BME280;6451;42.630;23.382;2023-04-27T11:54:01;94209.34;;;17.84;35.91
12775;BME280;6451;42.630;23.382;2023-04-27T11:56:37;94201.16;;;17.06;36.43
12775;BME280;6451;42.630;23.382;2023-04-27T11:59:05;94205.47;;;17.57;35.90
12775;BME280;6451;42.630;23.382;2023-04-27T12:01:32;94198.41;;;17.38;36.26
12775;BME280;6451;42.630;23.382;2023-04-27T12:03:59;94228.19;;;17.21;36.56
12775;BME280;6451;42.630;23.382;2023-04-27T12:06:27;94213.94;;;16.55;37.04
12775;BME280;6451;42.630;23.382;2023-04-27T12:08:55;94222.13;;;16.45;36.92
12775;BME280;6451;42.630;23.382;2023-04-27T12:11:23;94219.53;;;16.84;36.56
12775;BME280;6451;42.630;23.382;2023-04-27T12:13:52;94202.66;;;16.78;36.28
12775;BME280;6451;42.630;23.382;2023-04-27T12:16:19;94227.34;;;16.78;36.12
12775;BME280;6451;42.630;23.382;2023-04-27T12:18:48;94211.53;;;16.39;36.90
12775;BME280;6451;42.630;23.382;2023-04-27T12:21:15;94225.06;;;17.30;36.07
12775;BME280;6451;42.630;23.382;2023-04-27T12:23:43;94221.91;;;17.00;36.57
12775;BME280;6451;42.630;23.382;2023-04-27T12:26:10;94231.56;;;16.61;37.08
12775;BME280;6451;42.630;23.382;2023-04-27T12:28:37;94218.78;;;17.15;36.69
12775;BME280;6451;42.630;23.382;2023-04-27T12:31:07;94199.94;;;16.78;36.56
12775;BME280;6451;42.630;23.382;2023-04-27T12:33:33;94218.78;;;17.55;36.73
12775;BME280;6451;42.630;23.382;2023-04-27T12:36:00;94212.91;;;17.31;36.26
12775;BME280;6451;42.630;23.382;2023-04-27T12:38:27;94221.91;;;17.64;35.80
12775;BME280;6451;42.630;23.382;2023-04-27T12:40:55;94166.66;;;17.47;35.45
12775;BME280;6451;42.630;23.382;2023-04-27T12:43:24;94201.94;;;17.31;36.35
12775;BME280;6451;42.630;23.382;2023-04-27T12:45:52;94220.31;;;17.56;35.79
12775;BME280;6451;42.630;23.382;2023-04-27T12:48:20;94224.66;;;17.42;36.19
12775;BME280;6451;42.630;23.382;2023-04-27T12:50:47;94225.03;;;17.09;36.47
12775;BME280;6451;42.630;23.382;2023-04-27T12:53:14;94229.31;;;16.81;36.58
12775;BME280;6451;42.630;23.382;2023-04-27T12:55:41;94242.63;;;16.86;36.78
12775;BME280;6451;42.630;23.382;2023-04-27T12:58:09;94224.66;;;17.10;37.11
12775;BME280;6451;42.630;23.382;2023-04-27T13:00:36;94215.25;;;17.08;37.05
12775;BME280;6451;42.630;23.382;2023-04-27T13:03:03;94205.84;;;17.30;36.50
12775;BME280;6451;42.630;23.382;2023-04-27T13:05:32;94227.00;;;17.65;36.20
12775;BME280;6451;42.630;23.382;2023-04-27T13:07:59;94186.22;;;17.89;36.46